createdAt,value
2023-03-26T00:01:52.829Z,79.58
2023-03-26T00:06:57.461Z,78.39
2023-03-26T00:12:02.919Z,76.09
2023-03-26T00:17:08.665Z,76.16
2023-03-26T00:22:13.733Z,74.87
2023-03-26T00:27:19.143Z,74.89
2023-03-26T00:32:23.412Z,74.47
2023-03-26T00:37:29.154Z,73.79
2023-03-26T00:42:35.316Z,73.54
2023-03-26T00:47:40.313Z,74.32
2023-03-26T00:52:45.198Z,73.18
2023-03-26T00:57:51.076Z,72.97
2023-03-26T01:02:56.006Z,73.85
2023-03-26T01:08:00.153Z,74.79
2023-03-26T01:13:06.025Z,74.17
2023-03-26T01:18:14.270Z,73.64
2023-03-26T01:23:24.689Z,73.99
2023-03-26T01:28:36.337Z,75.34
2023-03-26T01:33:49.385Z,75.16
2023-03-26T01:39:02.500Z,75.94
2023-03-26T01:49:40.167Z,73.50
2023-03-26T01:54:46.802Z,71.42
2023-03-26T02:00:12.483Z,69.76
2023-03-26T02:05:26.532Z,71.38
2023-03-26T02:10:33.363Z,70.88
2023-03-26T02:15:39.040Z,68.75
2023-03-26T02:20:43.200Z,70.47
2023-03-26T02:25:47.453Z,68.94
2023-03-26T02:30:57.744Z,70.83
2023-03-26T02:36:03.198Z,67.55
2023-03-26T02:41:10.260Z,68.64
2023-03-26T02:46:36.764Z,74.33
2023-03-26T02:52:01.520Z,69.50
2023-03-26T02:57:05.723Z,70.48
2023-03-26T03:02:38.931Z,71.14
2023-03-26T03:08:04.163Z,69.68
2023-03-26T03:13:08.348Z,70.93
2023-03-26T03:18:14.520Z,71.59
2023-03-26T03:23:18.737Z,67.93
2023-03-26T03:28:24.919Z,67.53
2023-03-26T03:33:30.479Z,67.87
2023-03-26T03:38:34.546Z,66.51
2023-03-26T03:43:39.056Z,66.73
2023-03-26T03:48:51.086Z,66.08
2023-03-26T03:54:01.309Z,66.79
2023-03-26T03:59:28.665Z,66.76
2023-03-26T04:04:35.435Z,66.53
2023-03-26T04:09:41.547Z,66.83
2023-03-26T04:14:54.330Z,67.30
2023-03-26T04:20:10.489Z,64.87
2023-03-26T04:25:15.596Z,63.60
2023-03-26T04:30:34.549Z,62.25
2023-03-26T04:35:51.011Z,62.62
2023-03-26T04:41:04.036Z,61.96
2023-03-26T04:46:27.791Z,60.70
2023-03-26T04:51:46.472Z,60.90
2023-03-26T04:57:16.169Z,61.14
2023-03-26T05:02:28.699Z,60.70
2023-03-26T05:07:35.954Z,60.29
2023-03-26T05:12:41.649Z,60.31
2023-03-26T05:17:50.033Z,59.93
2023-03-26T05:23:06.100Z,59.54
2023-03-26T05:28:13.855Z,59.35
2023-03-26T05:33:34.771Z,58.73
2023-03-26T05:38:52.583Z,57.86
2023-03-26T05:44:17.122Z,58.32
2023-03-26T05:49:23.009Z,55.75
2023-03-26T05:54:28.935Z,55.22
2023-03-26T05:59:45.369Z,55.28
2023-03-26T06:05:32.633Z,54.79
2023-03-26T06:11:08.371Z,54.15
2023-03-26T06:16:21.140Z,52.14
2023-03-26T06:22:07.248Z,51.18
2023-03-26T06:27:48.246Z,51.45
2023-03-26T06:33:24.682Z,52.29
2023-03-26T06:38:29.729Z,48.92
2023-03-26T06:43:39.136Z,48.51
2023-03-26T06:49:04.749Z,49.26
2023-03-26T06:54:29.201Z,49.57
2023-03-26T06:59:41.733Z,48.00
2023-03-26T07:05:04.769Z,48.02
2023-03-26T07:10:35.289Z,45.83
2023-03-26T07:15:40.723Z,45.50
2023-03-26T07:21:06.335Z,44.80
2023-03-26T07:26:24.347Z,44.63
2023-03-26T07:31:45.701Z,42.54
2023-03-26T07:36:58.670Z,39.86
2023-03-26T07:42:35.545Z,38.60
2023-03-26T07:48:00.844Z,37.39
2023-03-26T07:53:23.424Z,35.12
2023-03-26T07:59:05.636Z,33.22
2023-03-26T08:04:54.452Z,31.70
2023-03-26T08:10:25.132Z,29.86
2023-03-26T08:15:42.260Z,28.64
2023-03-26T08:20:51.462Z,28.77
2023-03-26T08:26:02.530Z,27.53
2023-03-26T08:31:07.790Z,26.82
2023-03-26T08:36:13.590Z,28.32
2023-03-26T08:42:19.250Z,29.81
2023-03-26T08:47:57.274Z,27.55
2023-03-26T08:53:31.354Z,27.16
2023-03-26T08:59:21.862Z,24.83
2023-03-26T09:05:01.398Z,24.72
2023-03-26T09:10:36.436Z,24.28
2023-03-26T09:16:09.470Z,24.12
2023-03-26T09:21:43.194Z,23.56
2023-03-26T09:27:00.645Z,24.21
2023-03-26T09:32:40.016Z,24.75
2023-03-26T09:37:57.674Z,24.78
2023-03-26T09:43:30.639Z,23.80
2023-03-26T09:49:01.733Z,23.23
2023-03-26T09:54:31.878Z,23.05
2023-03-26T10:00:01.085Z,23.76
2023-03-26T10:05:39.057Z,22.89
2023-03-26T10:10:52.617Z,23.67
2023-03-26T10:16:13.128Z,23.67
2023-03-26T10:21:25.631Z,24.03
2023-03-26T10:27:08.573Z,23.03
2023-03-26T10:32:27.344Z,21.99
2023-03-26T10:37:47.059Z,22.46
2023-03-26T10:43:06.266Z,23.62
2023-03-26T10:49:05.150Z,23.70
2023-03-26T10:54:23.003Z,23.04
2023-03-26T10:59:30.716Z,23.66
2023-03-26T11:04:49.073Z,23.23
2023-03-26T11:10:01.706Z,22.51
2023-03-26T11:15:19.618Z,21.17
2023-03-26T11:20:34.435Z,21.67
2023-03-26T11:25:58.984Z,22.19
2023-03-26T11:31:13.188Z,22.34
2023-03-26T11:36:25.100Z,22.54
2023-03-26T11:41:32.374Z,22.49
2023-03-26T11:47:04.636Z,22.29
2023-03-26T11:52:12.602Z,22.40
2023-03-26T11:57:27.175Z,22.30
2023-03-26T12:02:35.436Z,21.50
2023-03-26T12:07:48.388Z,20.11
2023-03-26T12:12:56.252Z,19.76
2023-03-26T12:18:20.120Z,18.69
2023-03-26T12:23:59.112Z,20.35
2023-03-26T12:29:11.113Z,19.94
2023-03-26T12:34:17.491Z,20.52
2023-03-26T12:40:06.805Z,20.39
2023-03-26T12:45:00.343Z,20.13
2023-03-26T12:50:09.798Z,19.65
2023-03-26T12:55:37.964Z,20.87
2023-03-26T13:00:55.680Z,19.58
2023-03-26T13:06:10.695Z,21.10
2023-03-26T13:11:25.183Z,21.28
2023-03-26T13:16:38.578Z,21.07
2023-03-26T13:21:59.560Z,20.55
2023-03-26T13:27:18.287Z,20.29
2023-03-26T13:33:00.224Z,20.54
2023-03-26T13:38:12.843Z,20.25
2023-03-26T13:43:43.661Z,20.24
2023-03-26T13:48:55.655Z,20.61
2023-03-26T13:54:06.238Z,20.68
2023-03-26T13:59:16.062Z,21.38
2023-03-26T14:04:32.624Z,21.41
2023-03-26T14:09:44.225Z,21.82
2023-03-26T14:14:55.590Z,21.98
2023-03-26T14:20:32.718Z,23.26
2023-03-26T14:25:59.322Z,25.53
2023-03-26T14:31:21.240Z,27.69
2023-03-26T14:36:48.090Z,26.75
2023-03-26T14:41:57.091Z,24.68
2023-03-26T14:47:15.831Z,23.88
2023-03-26T14:52:27.433Z,26.37
2023-03-26T14:58:03.905Z,29.42
2023-03-26T15:03:48.838Z,29.09
2023-03-26T15:09:51.802Z,29.07
2023-03-26T15:15:38.577Z,27.37
2023-03-26T15:21:26.283Z,27.04
2023-03-26T15:27:08.498Z,26.57
2023-03-26T15:33:04.328Z,25.66
2023-03-26T15:38:49.248Z,25.79
2023-03-26T15:44:53.032Z,25.67
2023-03-26T15:50:14.011Z,27.15
2023-03-26T15:55:32.350Z,27.99
2023-03-26T16:00:57.323Z,27.68
2023-03-26T16:06:28.546Z,27.61
2023-03-26T16:11:52.030Z,28.16
2023-03-26T16:16:58.728Z,29.35
2023-03-26T16:22:06.470Z,29.91
2023-03-26T16:27:35.644Z,29.79
2023-03-26T16:32:43.102Z,30.48
2023-03-26T16:37:50.243Z,30.50
2023-03-26T16:43:04.140Z,30.99
2023-03-26T16:48:19.686Z,32.31
2023-03-26T16:53:35.403Z,33.32
2023-03-26T16:58:56.583Z,33.78
2023-03-26T17:04:05.880Z,33.42
2023-03-26T17:09:18.842Z,34.40
2023-03-26T17:14:34.714Z,35.70
2023-03-26T17:19:46.760Z,36.24
2023-03-26T17:24:57.567Z,37.05
2023-03-26T17:30:58.355Z,36.70
2023-03-26T17:36:32.291Z,37.07
2023-03-26T17:42:03.518Z,38.52
2023-03-26T17:47:19.073Z,37.93
2023-03-26T17:52:31.359Z,39.86
2023-03-26T17:57:44.839Z,39.84
2023-03-26T18:02:54.222Z,39.65
2023-03-26T18:08:37.160Z,39.60
2023-03-26T18:14:13.822Z,39.14
2023-03-26T18:19:23.052Z,41.62
2023-03-26T18:24:29.528Z,43.49
2023-03-26T18:29:36.954Z,42.88
2023-03-26T18:34:50.102Z,43.42
2023-03-26T18:40:12.613Z,43.23
2023-03-26T18:45:26.804Z,43.79
2023-03-26T18:50:37.544Z,43.88
2023-03-26T18:55:42.133Z,43.88
2023-03-26T19:00:46.452Z,44.78
2023-03-26T19:05:53.165Z,45.17
2023-03-26T19:10:57.763Z,45.14
2023-03-26T19:16:07.751Z,45.62
2023-03-26T19:21:15.742Z,46.09
2023-03-26T19:31:53.507Z,44.52
2023-03-26T19:37:02.036Z,45.58
2023-03-26T19:42:07.592Z,45.80
2023-03-26T19:47:22.034Z,46.02
2023-03-26T19:52:36.069Z,46.19
2023-03-26T19:57:40.073Z,46.27
2023-03-26T20:02:46.612Z,46.51
2023-03-26T20:07:54.159Z,46.61
2023-03-26T20:12:59.710Z,47.06
2023-03-26T20:18:05.413Z,48.12
2023-03-26T20:23:17.801Z,45.90
2023-03-26T20:28:27.287Z,45.88
2023-03-26T20:33:34.978Z,45.88
2023-03-26T20:38:43.078Z,45.97
2023-03-26T20:43:47.543Z,46.25
2023-03-26T20:48:52.665Z,45.51
2023-03-26T20:54:00.529Z,44.80
2023-03-26T20:59:10.967Z,47.05
2023-03-26T21:04:25.060Z,47.38
2023-03-26T21:09:35.819Z,47.51
2023-03-26T21:14:44.886Z,46.21
2023-03-26T21:19:53.507Z,45.71
2023-03-26T21:25:17.524Z,46.75
2023-03-26T21:30:25.716Z,46.53
2023-03-26T21:35:35.808Z,47.24
2023-03-26T21:40:58.192Z,47.34
2023-03-26T21:46:04.623Z,47.52
2023-03-26T21:51:15.745Z,49.47
2023-03-26T21:56:39.902Z,49.14
2023-03-26T22:01:52.109Z,49.70
2023-03-26T22:07:02.946Z,50.54
2023-03-26T22:12:18.637Z,50.24
2023-03-26T22:17:25.852Z,51.25
2023-03-26T22:22:31.131Z,51.03
2023-03-26T22:27:54.100Z,50.71
2023-03-26T22:32:58.907Z,52.10
2023-03-26T22:38:05.603Z,51.30
2023-03-26T22:43:13.873Z,49.62
2023-03-26T22:48:19.078Z,50.41
2023-03-26T22:53:25.737Z,50.28
2023-03-26T22:58:35.584Z,51.12
2023-03-26T23:03:41.108Z,49.26
2023-03-26T23:08:50.068Z,46.37
2023-03-26T23:13:58.056Z,45.58
2023-03-26T23:19:02.652Z,46.06
2023-03-26T23:24:07.612Z,46.15
2023-03-26T23:29:14.043Z,46.17
2023-03-26T23:34:19.076Z,45.85
2023-03-26T23:39:25.545Z,45.85
2023-03-26T23:44:32.369Z,45.72
2023-03-26T23:49:39.185Z,45.37
2023-03-26T23:54:44.767Z,46.03
2023-03-26T23:59:52.872Z,45.95
